createdAt,value
2019-05-16T00:00:45.088Z,44.51
2019-05-16T00:01:45.079Z,44.31
2019-05-16T00:02:45.065Z,44.23
2019-05-16T00:03:45.080Z,44.92
2019-05-16T00:04:45.110Z,44.51
2019-05-16T00:05:51.491Z,45.45
2019-05-16T00:06:47.993Z,45.45
2019-05-16T00:07:45.024Z,44.94
2019-05-16T00:08:45.029Z,45.45
2019-05-16T00:09:44.984Z,45.45
2019-05-16T00:10:45.012Z,45.25
2019-05-16T00:11:44.965Z,45.76
2019-05-16T00:12:44.954Z,45.35
2019-05-16T00:13:44.972Z,45.65
2019-05-16T00:14:44.931Z,45.65
2019-05-16T00:15:44.922Z,45.15
2019-05-16T00:16:44.954Z,45.78
2019-05-16T00:17:44.918Z,45.47
2019-05-16T00:18:44.929Z,46.19
2019-05-16T00:19:44.880Z,46.60
2019-05-16T00:20:44.866Z,46.09
2019-05-16T00:21:44.863Z,46.19
2019-05-16T00:22:44.905Z,46.60
2019-05-16T00:23:44.868Z,46.91
2019-05-16T00:24:44.826Z,46.39
2019-05-16T00:25:44.803Z,46.50
2019-05-16T00:26:44.796Z,46.70
2019-05-16T00:27:44.791Z,46.70
2019-05-16T00:28:44.779Z,47.01
2019-05-16T00:29:44.846Z,47.01
2019-05-16T00:30:44.756Z,47.13
2019-05-16T00:31:44.742Z,46.42
2019-05-16T00:32:44.739Z,46.62
2019-05-16T00:33:44.760Z,46.93
2019-05-16T00:34:44.745Z,45.90
2019-05-16T00:35:44.712Z,45.98
2019-05-16T00:36:44.698Z,45.78
2019-05-16T00:37:44.677Z,46.60
2019-05-16T00:38:44.672Z,46.19
2019-05-16T00:39:44.744Z,45.98
2019-05-16T00:40:44.642Z,46.19
2019-05-16T00:41:44.693Z,45.57
2019-05-16T00:42:44.633Z,45.78
2019-05-16T00:43:44.619Z,45.78
2019-05-16T00:44:44.626Z,45.89
2019-05-16T00:45:44.593Z,45.57
2019-05-16T00:46:44.578Z,45.39
2019-05-16T00:47:44.577Z,45.27
2019-05-16T00:48:44.623Z,45.27
2019-05-16T00:49:47.826Z,45.78
2019-05-16T00:50:44.530Z,45.06
2019-05-16T00:51:44.518Z,45.98
2019-05-16T00:52:44.507Z,45.37
2019-05-16T00:53:44.495Z,45.68
2019-05-16T00:54:44.570Z,45.47
2019-05-16T00:55:44.479Z,45.90
2019-05-16T00:56:44.471Z,45.80
2019-05-16T00:57:44.467Z,45.60
2019-05-16T00:58:44.470Z,44.96
2019-05-16T00:59:44.467Z,45.60
2019-05-16T01:00:44.422Z,45.47
2019-05-16T01:01:44.463Z,45.50
2019-05-16T01:02:44.406Z,45.37
2019-05-16T01:03:44.396Z,45.70
2019-05-16T01:04:44.412Z,45.39
2019-05-16T01:05:44.368Z,45.18
2019-05-16T01:06:44.357Z,45.50
2019-05-16T01:07:44.373Z,45.39
2019-05-16T01:08:44.343Z,45.37
2019-05-16T01:09:44.363Z,45.47
2019-05-16T01:10:44.322Z,45.50
2019-05-16T01:11:44.298Z,44.98
2019-05-16T01:12:44.325Z,45.37
2019-05-16T01:13:44.314Z,45.57
2019-05-16T01:14:44.297Z,45.68
2019-05-16T01:15:44.259Z,45.98
2019-05-16T01:16:44.256Z,46.01
2019-05-16T01:17:44.250Z,45.70
2019-05-16T01:18:44.226Z,46.01
2019-05-16T01:19:44.247Z,46.01
2019-05-16T01:20:44.238Z,46.42
2019-05-16T01:21:44.241Z,46.21
2019-05-16T01:22:44.177Z,46.62
2019-05-16T01:23:44.171Z,46.42
2019-05-16T01:24:44.193Z,47.13
2019-05-16T01:25:44.146Z,46.83
2019-05-16T01:26:44.132Z,46.70
2019-05-16T01:27:44.155Z,46.50
2019-05-16T01:28:44.120Z,46.91
2019-05-16T01:29:44.133Z,47.24
2019-05-16T01:30:44.105Z,46.93
2019-05-16T01:31:44.076Z,46.93
2019-05-16T01:32:44.075Z,47.13
2019-05-16T01:33:44.081Z,47.03
2019-05-16T01:34:44.074Z,46.91
2019-05-16T01:35:44.050Z,46.93
2019-05-16T01:36:44.034Z,46.42
2019-05-16T01:37:44.009Z,46.83
2019-05-16T01:38:43.999Z,47.24
2019-05-16T01:39:45.016Z,46.83
2019-05-16T01:40:43.981Z,47.01
2019-05-16T01:41:43.977Z,47.13
2019-05-16T01:42:43.957Z,46.81
2019-05-16T01:43:43.943Z,46.42
2019-05-16T01:44:43.983Z,47.11
2019-05-16T01:45:43.956Z,47.55
2019-05-16T01:46:43.934Z,47.52
2019-05-16T01:47:43.914Z,47.22
2019-05-16T01:48:43.889Z,47.31
2019-05-16T01:49:43.922Z,47.42
2019-05-16T01:50:43.909Z,47.55
2019-05-16T01:51:43.875Z,47.44
2019-05-16T01:52:43.847Z,48.47
2019-05-16T01:53:43.877Z,48.34
2019-05-16T01:54:43.863Z,48.47
2019-05-16T01:55:43.820Z,48.06
2019-05-16T01:56:43.804Z,48.16
2019-05-16T01:57:43.791Z,48.57
2019-05-16T01:58:43.778Z,47.93
2019-05-16T01:59:43.826Z,48.06
2019-05-16T02:00:52.306Z,49.26
2019-05-16T02:01:44.755Z,47.85
2019-05-16T02:02:43.737Z,49.18
2019-05-16T02:03:43.731Z,48.98
2019-05-16T02:04:43.760Z,49.29
2019-05-16T02:05:43.704Z,50.21
2019-05-16T02:06:51.617Z,49.69
2019-05-16T02:07:44.696Z,49.90
2019-05-16T02:08:43.710Z,50.21
2019-05-16T02:09:43.723Z,49.90
2019-05-16T02:10:43.658Z,50.42
2019-05-16T02:11:43.643Z,51.44
2019-05-16T02:12:43.627Z,51.85
2019-05-16T02:13:43.613Z,51.95
2019-05-16T02:14:43.634Z,53.08
2019-05-16T02:15:43.647Z,51.75
2019-05-16T02:16:43.581Z,52.97
2019-05-16T02:17:43.584Z,53.49
2019-05-16T02:18:43.563Z,53.90
2019-05-16T02:19:43.572Z,53.28
2019-05-16T02:20:43.540Z,53.69
2019-05-16T02:21:43.561Z,54.00
2019-05-16T02:22:43.520Z,54.21
2019-05-16T02:23:43.513Z,54.00
2019-05-16T02:24:44.459Z,53.80
2019-05-16T02:25:43.478Z,54.10
2019-05-16T02:26:43.492Z,54.00
2019-05-16T02:27:43.502Z,54.21
2019-05-16T02:28:43.933Z,53.80
2019-05-16T02:29:43.468Z,53.59
2019-05-16T02:30:43.450Z,54.51
2019-05-16T02:31:43.425Z,55.13
2019-05-16T02:32:43.435Z,54.82
2019-05-16T02:33:43.434Z,54.61
2019-05-16T02:34:43.418Z,54.82
2019-05-16T02:35:43.382Z,54.61
2019-05-16T02:36:43.375Z,54.51
2019-05-16T02:37:43.352Z,54.92
2019-05-16T02:38:43.341Z,55.13
2019-05-16T02:39:43.371Z,55.33
2019-05-16T02:40:43.369Z,55.23
2019-05-16T02:41:46.147Z,55.94
2019-05-16T02:42:43.299Z,55.02
2019-05-16T02:43:43.292Z,55.23
2019-05-16T02:44:43.332Z,55.74
2019-05-16T02:45:43.263Z,56.15
2019-05-16T02:46:43.288Z,55.85
2019-05-16T02:47:43.245Z,55.74
2019-05-16T02:48:43.238Z,55.43
2019-05-16T02:49:43.261Z,55.85
2019-05-16T02:50:43.205Z,56.07
2019-05-16T02:51:43.218Z,56.15
2019-05-16T02:52:43.185Z,56.05
2019-05-16T02:53:43.235Z,56.05
2019-05-16T02:54:43.969Z,55.54
2019-05-16T02:55:43.155Z,56.26
2019-05-16T02:56:43.149Z,55.64
2019-05-16T02:57:43.136Z,54.21
2019-05-16T02:58:44.816Z,55.33
2019-05-16T02:59:43.130Z,55.77
2019-05-16T03:00:43.186Z,55.54
2019-05-16T03:01:43.091Z,55.23
2019-05-16T03:02:43.098Z,54.64
2019-05-16T03:03:44.196Z,54.00
2019-05-16T03:04:44.246Z,54.44
2019-05-16T03:05:43.057Z,53.82
2019-05-16T03:06:43.036Z,54.02
2019-05-16T03:07:46.910Z,54.02
2019-05-16T03:08:43.024Z,53.61
2019-05-16T03:09:43.037Z,53.82
2019-05-16T03:10:43.004Z,54.23
2019-05-16T03:11:42.982Z,53.51
2019-05-16T03:12:42.968Z,53.72
2019-05-16T03:13:42.953Z,53.41
2019-05-16T03:14:43.039Z,53.82
2019-05-16T03:15:42.935Z,53.74
2019-05-16T03:16:42.933Z,53.85
2019-05-16T03:17:42.912Z,54.05
2019-05-16T03:18:42.904Z,54.15
2019-05-16T03:19:42.939Z,54.15
2019-05-16T03:20:42.926Z,53.95
2019-05-16T03:21:42.881Z,54.15
2019-05-16T03:22:42.915Z,53.95
2019-05-16T03:23:42.842Z,53.44
2019-05-16T03:24:42.841Z,54.05
2019-05-16T03:25:42.864Z,54.15
2019-05-16T03:26:42.843Z,54.15
2019-05-16T03:27:42.803Z,53.64
2019-05-16T03:28:42.798Z,53.77
2019-05-16T03:29:42.792Z,53.77
2019-05-16T03:30:44.710Z,53.97
2019-05-16T03:31:44.883Z,54.28
2019-05-16T03:32:45.046Z,54.18
2019-05-16T03:33:49.883Z,53.56
2019-05-16T03:34:44.608Z,54.08
2019-05-16T03:35:44.863Z,53.77
2019-05-16T03:36:44.019Z,54.08
2019-05-16T03:37:54.980Z,53.87
2019-05-16T03:38:43.676Z,54.30
2019-05-16T03:39:42.668Z,54.28
2019-05-16T03:40:42.681Z,54.08
2019-05-16T03:41:42.653Z,54.28
2019-05-16T03:42:42.644Z,54.08
2019-05-16T03:43:42.664Z,54.08
2019-05-16T03:44:42.646Z,54.10
2019-05-16T03:45:42.642Z,54.00
2019-05-16T03:46:42.596Z,54.79
2019-05-16T03:47:43.069Z,53.97
2019-05-16T03:48:42.569Z,54.08
2019-05-16T03:49:42.619Z,55.10
2019-05-16T03:50:42.586Z,54.00
2019-05-16T03:51:42.547Z,54.69
2019-05-16T03:52:43.789Z,54.51
2019-05-16T03:53:42.520Z,54.49
2019-05-16T03:54:42.507Z,54.21
2019-05-16T03:55:42.526Z,54.51
2019-05-16T03:56:42.523Z,54.51
2019-05-16T03:57:42.466Z,54.49
2019-05-16T03:58:42.473Z,54.30
2019-05-16T03:59:42.457Z,54.51
2019-05-16T04:00:45.837Z,54.61
2019-05-16T04:01:42.434Z,54.41
2019-05-16T04:02:45.592Z,54.51
2019-05-16T04:03:42.412Z,54.28
2019-05-16T04:04:42.394Z,55.33
2019-05-16T04:05:42.416Z,54.92
2019-05-16T04:06:42.376Z,54.38
2019-05-16T04:07:42.382Z,54.61
2019-05-16T04:08:42.355Z,54.10
2019-05-16T04:09:42.381Z,54.72
2019-05-16T04:10:42.385Z,54.72
2019-05-16T04:11:42.982Z,55.13
2019-05-16T04:12:42.386Z,54.51
2019-05-16T04:13:42.308Z,54.51
2019-05-16T04:14:42.285Z,55.13
2019-05-16T04:15:42.346Z,55.13
2019-05-16T04:16:42.276Z,54.92
2019-05-16T04:17:42.259Z,55.02
2019-05-16T04:18:42.343Z,55.74
2019-05-16T04:19:42.229Z,55.13
2019-05-16T04:20:42.241Z,55.23
2019-05-16T04:21:42.586Z,55.43
2019-05-16T04:22:42.207Z,55.64
2019-05-16T04:23:42.396Z,55.95
2019-05-16T04:24:42.170Z,55.66
2019-05-16T04:25:42.197Z,55.95
2019-05-16T04:26:42.168Z,56.18
2019-05-16T04:27:42.201Z,56.05
2019-05-16T04:28:42.130Z,56.26
2019-05-16T04:29:42.124Z,56.38
2019-05-16T04:30:42.136Z,56.46
2019-05-16T04:31:42.095Z,56.67
2019-05-16T04:32:42.377Z,56.36
2019-05-16T04:33:42.120Z,56.18
2019-05-16T04:34:42.067Z,56.26
2019-05-16T04:35:42.088Z,56.15
2019-05-16T04:36:42.056Z,57.18
2019-05-16T04:37:42.653Z,56.67
2019-05-16T04:38:46.491Z,57.00
2019-05-16T04:39:42.069Z,57.39
2019-05-16T04:40:42.529Z,58.13
2019-05-16T04:41:41.986Z,58.64
2019-05-16T04:42:42.154Z,58.13
2019-05-16T04:43:41.974Z,58.54
2019-05-16T04:44:41.999Z,59.06
2019-05-16T04:45:42.528Z,59.16
2019-05-16T04:46:41.935Z,59.57
2019-05-16T04:47:41.928Z,59.98
2019-05-16T04:48:42.113Z,60.70
2019-05-16T04:49:41.913Z,61.42
2019-05-16T04:50:41.989Z,61.32
2019-05-16T04:51:41.919Z,63.06
2019-05-16T04:52:42.254Z,64.50
2019-05-16T04:53:42.757Z,64.60
2019-05-16T04:54:42.182Z,64.63
2019-05-16T04:55:42.184Z,65.86
2019-05-16T04:56:41.821Z,67.10
2019-05-16T04:57:42.544Z,67.85
2019-05-16T04:58:41.806Z,68.67
2019-05-16T04:59:42.044Z,69.70
2019-05-16T05:00:42.111Z,70.73
2019-05-16T05:01:41.771Z,73.02
2019-05-16T05:02:42.182Z,72.20
2019-05-16T05:03:59.739Z,74.26
2019-05-16T05:04:42.731Z,72.03
2019-05-16T05:05:42.489Z,75.29
2019-05-16T05:06:41.755Z,73.13
2019-05-16T05:07:41.705Z,73.85
2019-05-16T05:08:53.977Z,73.85
2019-05-16T05:09:42.740Z,73.95
2019-05-16T05:10:41.692Z,73.74
2019-05-16T05:11:41.660Z,74.15
2019-05-16T05:12:41.645Z,72.78
2019-05-16T05:13:41.635Z,74.15
2019-05-16T05:14:41.794Z,73.85
2019-05-16T05:15:41.640Z,72.78
2019-05-16T05:16:41.635Z,72.38
2019-05-16T05:17:41.639Z,71.48
2019-05-16T05:18:41.610Z,72.61
2019-05-16T05:19:41.596Z,72.78
2019-05-16T05:20:41.583Z,73.50
2019-05-16T05:21:41.581Z,73.71
2019-05-16T05:22:41.539Z,73.98
2019-05-16T05:23:41.530Z,72.65
2019-05-16T05:24:41.516Z,72.75
2019-05-16T05:25:41.532Z,72.75
2019-05-16T05:26:41.710Z,73.06
2019-05-16T05:27:41.525Z,73.57
2019-05-16T05:28:41.544Z,74.15
2019-05-16T05:29:41.465Z,72.65
2019-05-16T05:30:41.482Z,72.55
2019-05-16T05:31:44.807Z,71.00
2019-05-16T05:32:41.574Z,72.44
2019-05-16T05:33:41.849Z,72.34
2019-05-16T05:34:41.404Z,71.72
2019-05-16T05:35:41.422Z,71.93
2019-05-16T05:36:41.385Z,70.79
2019-05-16T05:37:41.378Z,72.03
2019-05-16T05:38:41.367Z,71.89
2019-05-16T05:39:41.433Z,70.90
2019-05-16T05:40:41.381Z,71.93
2019-05-16T05:41:41.332Z,70.90
2019-05-16T05:42:41.321Z,70.79
2019-05-16T05:43:41.307Z,70.49
2019-05-16T05:44:41.296Z,70.39
2019-05-16T05:45:41.380Z,69.77
2019-05-16T05:46:41.284Z,70.08
2019-05-16T05:47:41.299Z,69.32
2019-05-16T05:48:41.307Z,69.43
2019-05-16T05:49:41.241Z,69.29
2019-05-16T05:50:42.000Z,68.99
2019-05-16T05:51:41.233Z,68.68
2019-05-16T05:52:41.425Z,68.68
2019-05-16T05:53:41.213Z,68.78
2019-05-16T05:54:41.190Z,68.06
2019-05-16T05:55:41.198Z,68.75
2019-05-16T05:56:41.163Z,66.60
2019-05-16T05:57:41.154Z,66.60
2019-05-16T05:58:41.166Z,65.95
2019-05-16T05:59:41.204Z,64.61
2019-05-16T06:00:41.159Z,65.12
2019-05-16T06:01:43.767Z,64.69
2019-05-16T06:02:41.146Z,64.28
2019-05-16T06:03:41.093Z,63.46
2019-05-16T06:04:41.215Z,63.84
2019-05-16T06:05:41.392Z,64.45
2019-05-16T06:06:44.784Z,65.37
2019-05-16T06:07:41.084Z,63.84
2019-05-16T06:08:41.140Z,62.10
2019-05-16T06:09:52.872Z,63.94
2019-05-16T06:10:42.095Z,62.51
2019-05-16T06:11:41.025Z,61.89
2019-05-16T06:12:42.351Z,62.07
2019-05-16T06:13:40.988Z,61.89
2019-05-16T06:14:41.791Z,61.99
2019-05-16T06:15:41.026Z,63.22
2019-05-16T06:16:40.945Z,61.96
2019-05-16T06:17:40.931Z,62.07
2019-05-16T06:18:40.950Z,62.07
2019-05-16T06:19:40.918Z,60.84
2019-05-16T06:20:40.936Z,61.76
2019-05-16T06:21:44.658Z,61.83
2019-05-16T06:22:40.875Z,62.14
2019-05-16T06:23:40.915Z,61.80
2019-05-16T06:24:40.874Z,61.29
2019-05-16T06:25:40.844Z,62.32
2019-05-16T06:26:40.868Z,60.06
2019-05-16T06:27:40.918Z,60.60
2019-05-16T06:28:41.426Z,62.01
2019-05-16T06:29:40.799Z,60.37
2019-05-16T06:30:40.911Z,61.09
2019-05-16T06:31:46.008Z,61.09
2019-05-16T06:32:40.771Z,61.40
2019-05-16T06:33:41.192Z,61.09
2019-05-16T06:34:40.765Z,60.58
2019-05-16T06:35:41.719Z,59.38
2019-05-16T06:36:40.757Z,60.10
2019-05-16T06:37:40.890Z,59.61
2019-05-16T06:38:40.758Z,59.81
2019-05-16T06:39:45.093Z,60.12
2019-05-16T06:40:40.675Z,60.42
2019-05-16T06:41:40.765Z,60.02
2019-05-16T06:42:40.654Z,60.42
2019-05-16T06:43:40.717Z,59.50
2019-05-16T06:44:40.631Z,59.50
2019-05-16T06:45:40.664Z,61.43
2019-05-16T06:46:56.447Z,59.89
2019-05-16T06:47:41.757Z,60.10
2019-05-16T06:48:40.587Z,59.68
2019-05-16T06:49:40.605Z,60.60
2019-05-16T06:50:40.566Z,59.76
2019-05-16T06:52:20.328Z,59.99
2019-05-16T06:52:41.016Z,60.47
2019-05-16T06:53:41.486Z,59.45
2019-05-16T06:54:45.694Z,59.25
2019-05-16T06:55:40.831Z,58.53
2019-05-16T06:56:42.366Z,58.76
2019-05-16T06:57:41.071Z,58.84
2019-05-16T06:58:47.743Z,59.55
2019-05-16T06:59:41.534Z,59.35
2019-05-16T07:00:40.669Z,59.66
2019-05-16T07:01:44.557Z,59.12
2019-05-16T07:02:41.009Z,58.61
2019-05-16T07:03:40.511Z,58.48
2019-05-16T07:04:40.532Z,58.89
2019-05-16T07:05:40.669Z,57.86
2019-05-16T07:06:54.747Z,58.48
2019-05-16T07:07:42.623Z,57.66
2019-05-16T07:08:40.541Z,56.76
2019-05-16T07:09:41.854Z,56.97
2019-05-16T07:10:41.405Z,58.50
2019-05-16T07:11:40.462Z,57.25
2019-05-16T07:12:41.311Z,57.38
2019-05-16T07:13:40.721Z,58.29
2019-05-16T07:14:40.746Z,56.46
2019-05-16T07:15:40.325Z,57.97
2019-05-16T07:16:41.082Z,57.35
2019-05-16T07:17:40.364Z,57.86
2019-05-16T07:18:40.401Z,57.76
2019-05-16T07:19:40.780Z,58.17
2019-05-16T07:20:40.305Z,57.97
2019-05-16T07:21:40.363Z,57.73
2019-05-16T07:22:40.789Z,57.53
2019-05-16T07:23:40.576Z,57.76
2019-05-16T07:24:40.276Z,55.94
2019-05-16T07:25:40.713Z,57.56
2019-05-16T07:26:42.037Z,55.94
2019-05-16T07:27:40.358Z,57.38
2019-05-16T07:28:40.773Z,56.97
2019-05-16T07:29:40.338Z,56.23
2019-05-16T07:30:40.853Z,56.84
2019-05-16T07:31:40.590Z,56.33
2019-05-16T07:32:40.612Z,55.82
2019-05-16T07:33:40.699Z,56.74
2019-05-16T07:34:40.433Z,56.58
2019-05-16T07:35:40.195Z,56.58
2019-05-16T07:36:41.019Z,55.46
2019-05-16T07:37:40.165Z,55.66
2019-05-16T07:38:40.206Z,55.36
2019-05-16T07:39:41.869Z,54.95
2019-05-16T07:40:40.152Z,54.85
2019-05-16T07:41:41.835Z,54.51
2019-05-16T07:42:40.443Z,54.39
2019-05-16T07:43:40.167Z,54.11
2019-05-16T07:44:40.813Z,54.28
2019-05-16T07:45:40.646Z,53.88
2019-05-16T07:46:44.306Z,53.75
2019-05-16T07:47:40.319Z,54.05
2019-05-16T07:48:40.438Z,53.75
2019-05-16T07:49:40.695Z,54.16
2019-05-16T07:50:40.481Z,53.83
2019-05-16T07:51:40.310Z,53.42
2019-05-16T07:52:40.338Z,53.72
2019-05-16T07:53:40.363Z,52.93
2019-05-16T07:54:40.580Z,53.47
2019-05-16T07:55:40.094Z,53.64
2019-05-16T07:56:40.725Z,53.11
2019-05-16T07:57:40.114Z,53.31
2019-05-16T07:58:41.379Z,53.34
2019-05-16T07:59:40.497Z,53.31
2019-05-16T08:00:49.562Z,53.19
2019-05-16T08:01:43.391Z,52.88
2019-05-16T08:02:40.519Z,52.70
2019-05-16T08:03:43.730Z,53.31
2019-05-16T08:04:40.578Z,52.91
2019-05-16T08:05:41.242Z,53.75
2019-05-16T08:06:41.678Z,54.18
2019-05-16T08:07:40.697Z,53.75
2019-05-16T08:08:40.369Z,53.55
2019-05-16T08:09:39.881Z,53.75
2019-05-16T08:10:46.081Z,54.44
2019-05-16T08:11:41.554Z,53.52
2019-05-16T08:12:40.725Z,52.70
2019-05-16T08:13:40.049Z,53.72
2019-05-16T08:14:40.955Z,53.72
2019-05-16T08:15:40.650Z,53.29
2019-05-16T08:16:40.832Z,53.01
2019-05-16T08:17:41.475Z,53.92
2019-05-16T08:18:44.749Z,53.39
2019-05-16T08:19:40.626Z,53.92
2019-05-16T08:20:41.721Z,54.72
2019-05-16T08:21:43.661Z,53.72
2019-05-16T08:22:41.629Z,53.52
2019-05-16T08:23:41.184Z,54.26
2019-05-16T08:24:40.187Z,55.82
2019-05-16T08:25:41.204Z,55.30
2019-05-16T08:26:43.141Z,55.10
2019-05-16T08:28:41.577Z,54.79
2019-05-16T08:29:40.458Z,55.48
2019-05-16T08:30:41.278Z,54.26
2019-05-16T08:32:42.055Z,54.13
2019-05-16T08:33:21.264Z,55.71
2019-05-16T08:33:41.536Z,54.31
2019-05-16T08:34:40.928Z,53.67
2019-05-16T08:35:41.438Z,53.50
2019-05-16T08:36:42.861Z,53.67
2019-05-16T08:37:46.637Z,53.96
2019-05-16T08:38:42.947Z,52.33
2019-05-16T08:39:41.334Z,52.63
2019-05-16T08:42:41.593Z,51.67
2019-05-16T08:43:41.388Z,51.39
2019-05-16T08:45:41.848Z,51.72
2019-05-16T08:46:42.331Z,51.72
2019-05-16T08:47:41.843Z,51.18
2019-05-16T08:48:42.324Z,51.69
2019-05-16T08:49:42.037Z,51.39
2019-05-16T08:50:42.098Z,50.87
2019-05-16T08:51:42.659Z,51.59
2019-05-16T08:52:43.942Z,51.69
2019-05-16T08:53:43.355Z,51.59
2019-05-16T08:54:43.736Z,50.65
2019-05-16T08:55:43.448Z,50.98
2019-05-16T08:56:44.131Z,50.83
2019-05-16T08:57:40.875Z,49.38
2019-05-16T08:58:41.105Z,50.12
2019-05-16T08:59:41.089Z,49.89
2019-05-16T09:00:41.907Z,49.99
2019-05-16T09:01:50.622Z,49.91
2019-05-16T09:02:42.190Z,50.12
2019-05-16T09:03:41.609Z,49.81
2019-05-16T09:04:43.873Z,49.91
2019-05-16T09:05:42.856Z,49.48
2019-05-16T09:06:42.409Z,49.48
2019-05-16T09:07:39.135Z,50.01
2019-05-16T09:08:39.226Z,49.99
2019-05-16T09:09:48.666Z,50.01
2019-05-16T09:10:11.001Z,52.48
2019-05-16T09:10:31.603Z,51.39
2019-05-16T09:10:34.907Z,51.48
2019-05-16T09:10:41.403Z,54.26
2019-05-16T09:10:51.428Z,49.56
2019-05-16T09:11:45.077Z,50.17
2019-05-16T09:12:40.057Z,49.99
2019-05-16T09:13:39.109Z,49.08
2019-05-16T09:14:39.267Z,49.58
2019-05-16T09:15:39.180Z,49.05
2019-05-16T09:16:39.079Z,48.50
2019-05-16T09:17:39.068Z,47.80
2019-05-16T09:18:41.245Z,45.53
2019-05-16T09:19:39.970Z,45.23
2019-05-16T09:20:42.698Z,45.94
2019-05-16T09:21:39.701Z,46.04
2019-05-16T09:22:39.002Z,45.91
2019-05-16T09:23:38.907Z,45.59
2019-05-16T09:24:38.935Z,44.96
2019-05-16T09:25:38.932Z,44.76
2019-05-16T09:26:38.993Z,45.00
2019-05-16T09:27:39.962Z,47.60
2019-05-16T09:28:39.247Z,46.48
2019-05-16T09:29:38.945Z,46.79
2019-05-16T09:30:38.854Z,46.89
2019-05-16T09:32:17.868Z,46.59
2019-05-16T09:32:42.788Z,48.15
2019-05-16T09:36:19.067Z,49.76
2019-05-16T09:37:18.983Z,49.95
2019-05-16T09:38:23.471Z,50.12
2019-05-16T09:39:19.151Z,49.19
2019-05-16T09:40:18.919Z,48.05
2019-05-16T09:41:18.983Z,46.89
2019-05-16T09:42:22.012Z,47.42
2019-05-16T09:43:18.905Z,46.97
2019-05-16T09:44:18.864Z,45.51
2019-05-16T09:45:18.839Z,44.98
2019-05-16T09:46:18.903Z,44.78
2019-05-16T09:47:19.631Z,44.58
2019-05-16T09:48:19.193Z,45.06
2019-05-16T09:49:24.120Z,44.98
2019-05-16T09:50:20.259Z,45.43
2019-05-16T09:51:21.329Z,47.90
2019-05-16T09:52:22.060Z,46.75
2019-05-16T09:53:18.760Z,46.50
2019-05-16T09:54:18.748Z,46.24
2019-05-16T09:55:18.914Z,47.80
2019-05-16T09:56:18.767Z,48.23
2019-05-16T09:57:24.611Z,47.39
2019-05-16T09:58:18.777Z,48.55
2019-05-16T09:59:18.716Z,48.69
2019-05-16T10:00:18.780Z,48.18
2019-05-16T10:01:18.683Z,48.71
2019-05-16T10:02:31.081Z,48.79
2019-05-16T10:03:22.502Z,48.90
2019-05-16T10:04:18.813Z,49.04
2019-05-16T10:05:18.648Z,50.71
2019-05-16T10:06:19.319Z,50.79
2019-05-16T10:07:22.596Z,48.83
2019-05-16T10:08:18.605Z,48.82
2019-05-16T10:09:18.619Z,48.82
2019-05-16T10:10:18.599Z,48.61
2019-05-16T10:11:18.614Z,47.13
2019-05-16T10:12:27.175Z,46.98
2019-05-16T10:13:18.689Z,46.98
2019-05-16T10:14:18.578Z,46.15
2019-05-16T10:15:19.530Z,45.77
2019-05-16T10:16:18.535Z,46.37
2019-05-16T10:17:18.624Z,46.70
2019-05-16T10:18:18.523Z,46.09
2019-05-16T10:19:18.752Z,45.79
2019-05-16T10:20:18.494Z,47.03
2019-05-16T10:21:20.655Z,46.70
2019-05-16T10:22:18.509Z,45.81
2019-05-16T10:23:18.497Z,44.70
2019-05-16T10:24:18.501Z,43.32
2019-05-16T10:25:19.543Z,42.74
2019-05-16T10:26:19.443Z,42.47
2019-05-16T10:27:20.079Z,42.72
2019-05-16T10:28:20.129Z,44.79
2019-05-16T10:29:18.727Z,45.93
2019-05-16T10:30:18.383Z,44.82
2019-05-16T10:31:19.019Z,47.86
2019-05-16T10:32:20.085Z,49.14
2019-05-16T10:33:19.188Z,49.04
2019-05-16T10:34:18.347Z,48.21
2019-05-16T10:35:18.402Z,48.49
2019-05-16T10:36:21.547Z,47.96
2019-05-16T10:37:19.123Z,47.43
2019-05-16T10:38:18.275Z,46.83
2019-05-16T10:39:18.323Z,46.45
2019-05-16T10:40:18.536Z,45.75
2019-05-16T10:41:18.317Z,46.17
2019-05-16T10:42:28.287Z,46.48
2019-05-16T10:43:19.297Z,44.47
2019-05-16T10:44:18.646Z,44.51
2019-05-16T10:45:18.207Z,46.28
2019-05-16T10:46:18.276Z,45.99
2019-05-16T10:47:19.012Z,46.60
2019-05-16T10:48:18.141Z,47.55
2019-05-16T10:49:32.808Z,48.87
2019-05-16T10:50:19.149Z,47.33
2019-05-16T10:51:18.150Z,47.94
2019-05-16T10:52:18.780Z,48.34
2019-05-16T10:53:42.722Z,47.74
2019-05-16T10:54:19.399Z,49.07
2019-05-16T10:55:18.127Z,50.01
2019-05-16T10:56:18.155Z,50.74
2019-05-16T10:57:29.366Z,51.37
2019-05-16T10:58:32.878Z,51.29
2019-05-16T10:59:54.564Z,51.17
2019-05-16T11:00:42.651Z,51.29
2019-05-16T11:01:27.458Z,51.39
2019-05-16T11:02:24.547Z,51.44
2019-05-16T11:03:18.018Z,52.86
2019-05-16T11:04:28.965Z,51.82
2019-05-16T11:05:30.155Z,51.50
2019-05-16T11:06:25.721Z,51.09
2019-05-16T11:07:19.049Z,51.19
2019-05-16T11:08:17.943Z,50.96
2019-05-16T11:09:18.122Z,50.94
2019-05-16T11:10:18.097Z,50.43
2019-05-16T11:11:20.025Z,49.40
2019-05-16T11:12:23.041Z,49.32
2019-05-16T11:13:20.249Z,49.19
2019-05-16T11:14:18.212Z,49.60
2019-05-16T11:15:17.885Z,50.23
2019-05-16T11:16:18.124Z,50.18
2019-05-16T11:17:19.067Z,49.38
2019-05-16T11:18:17.840Z,48.36
2019-05-16T11:19:21.240Z,48.99
2019-05-16T11:20:20.219Z,49.40
2019-05-16T11:21:19.279Z,49.19
2019-05-16T11:22:21.028Z,49.73
2019-05-16T11:23:23.000Z,50.56
2019-05-16T11:24:18.808Z,50.46
2019-05-16T11:25:27.969Z,50.63
2019-05-16T11:26:18.810Z,50.23
2019-05-16T11:27:25.873Z,49.93
2019-05-16T11:28:18.579Z,49.83
2019-05-16T11:29:17.752Z,49.85
2019-05-16T11:30:18.291Z,50.28
2019-05-16T11:31:17.791Z,50.93
2019-05-16T11:32:30.124Z,51.57
2019-05-16T11:33:17.711Z,51.46
2019-05-16T11:34:17.732Z,52.10
2019-05-16T11:35:17.678Z,52.69
2019-05-16T11:36:17.671Z,52.69
2019-05-16T11:37:17.811Z,51.52
2019-05-16T11:38:17.973Z,51.29
2019-05-16T11:39:17.656Z,51.39
2019-05-16T11:40:18.230Z,50.81
2019-05-16T11:41:17.631Z,51.34
2019-05-16T11:42:17.737Z,51.98
2019-05-16T11:43:21.410Z,53.19
2019-05-16T11:44:17.878Z,52.71
2019-05-16T11:45:17.635Z,52.53
2019-05-16T11:46:17.597Z,52.94
2019-05-16T11:47:17.511Z,53.27
2019-05-16T11:48:25.400Z,53.27
2019-05-16T11:49:19.139Z,52.35
2019-05-16T11:50:17.951Z,53.37
2019-05-16T11:51:17.817Z,53.59
2019-05-16T11:52:18.044Z,53.52
2019-05-16T11:53:28.113Z,54.77
2019-05-16T11:54:18.408Z,53.93
2019-05-16T11:55:17.472Z,54.66
2019-05-16T11:56:17.449Z,54.57
2019-05-16T11:57:17.881Z,55.28
2019-05-16T11:58:18.205Z,54.46
2019-05-16T11:59:17.387Z,54.16
2019-05-16T12:00:18.159Z,54.46
2019-05-16T12:01:17.490Z,54.05
2019-05-16T12:02:17.655Z,53.65
2019-05-16T12:03:23.155Z,54.16
2019-05-16T12:04:17.613Z,53.63
2019-05-16T12:05:17.533Z,53.63
2019-05-16T12:06:17.610Z,53.09
2019-05-16T12:07:19.167Z,53.09
2019-05-16T12:08:17.800Z,52.68
2019-05-16T12:09:17.941Z,52.68
2019-05-16T12:10:17.272Z,52.73
2019-05-16T12:11:17.873Z,52.30
2019-05-16T12:12:20.662Z,50.86
2019-05-16T12:13:27.428Z,49.69
2019-05-16T12:14:18.317Z,47.50
2019-05-16T12:15:19.965Z,47.95
2019-05-16T12:16:18.827Z,48.88
2019-05-16T12:17:17.354Z,48.99
2019-05-16T12:18:18.168Z,48.96
2019-05-16T12:19:18.117Z,48.86
2019-05-16T12:20:17.178Z,48.74
2019-05-16T12:21:17.359Z,48.86
2019-05-16T12:22:18.279Z,49.06
2019-05-16T12:23:22.845Z,48.86
2019-05-16T12:24:31.863Z,48.63
2019-05-16T12:25:18.135Z,49.34
2019-05-16T12:26:17.715Z,48.96
2019-05-16T12:27:17.305Z,49.14
2019-05-16T12:28:21.294Z,48.82
2019-05-16T12:29:17.525Z,48.36
2019-05-16T12:30:17.678Z,46.14
2019-05-16T12:31:17.653Z,47.88
2019-05-16T12:32:17.933Z,47.27
2019-05-16T12:33:18.676Z,47.27
2019-05-16T12:34:17.035Z,47.66
2019-05-16T12:35:17.609Z,47.74
2019-05-16T12:36:17.601Z,47.83
2019-05-16T12:37:17.081Z,48.34
2019-05-16T12:38:17.700Z,48.24
2019-05-16T12:39:17.301Z,47.53
2019-05-16T12:40:17.031Z,47.11
2019-05-16T12:41:16.902Z,46.37
2019-05-16T12:42:17.534Z,46.50
2019-05-16T12:43:18.079Z,46.30
2019-05-16T12:44:16.901Z,46.58
2019-05-16T12:45:16.967Z,45.85
2019-05-16T12:46:16.917Z,44.54
2019-05-16T12:47:16.969Z,45.75
2019-05-16T12:48:20.248Z,45.77
2019-05-16T12:49:17.505Z,46.92
2019-05-16T12:50:17.777Z,47.53
2019-05-16T12:51:17.262Z,47.41
2019-05-16T12:52:16.807Z,46.91
2019-05-16T12:53:16.938Z,46.25
2019-05-16T12:54:18.236Z,46.78
2019-05-16T12:55:16.796Z,46.30